sensor_id;sensor_type;location;lat;lon;timestamp;P1;durP1;ratioP1;P2;durP2;ratioP2
18574;SDS011;9417;16.484;102.872;2023-03-23T00:01:10;47.83;;;34.50;;
18574;SDS011;9417;16.484;102.872;2023-03-23T00:03:16;47.42;;;34.10;;
18574;SDS011;9417;16.484;102.872;2023-03-23T00:05:22;43.75;;;33.03;;
18574;SDS011;9417;16.484;102.872;2023-03-23T00:07:28;49.40;;;35.22;;
18574;SDS011;9417;16.484;102.872;2023-03-23T00:09:34;49.45;;;35.15;;
18574;SDS011;9417;16.484;102.872;2023-03-23T00:11:43;44.03;;;33.92;;
18574;SDS011;9417;16.484;102.872;2023-03-23T00:13:50;48.22;;;34.22;;
18574;SDS011;9417;16.484;102.872;2023-03-23T00:15:55;50.72;;;36.40;;
18574;SDS011;9417;16.484;102.872;2023-03-23T00:18:02;52.92;;;37.42;;
18574;SDS011;9417;16.484;102.872;2023-03-23T00:20:08;54.95;;;39.20;;
18574;SDS011;9417;16.484;102.872;2023-03-23T00:22:15;61.38;;;39.70;;
18574;SDS011;9417;16.484;102.872;2023-03-23T00:24:22;54.00;;;37.95;;
18574;SDS011;9417;16.484;102.872;2023-03-23T00:26:28;51.50;;;37.05;;
18574;SDS011;9417;16.484;102.872;2023-03-23T00:28:35;52.55;;;37.78;;
18574;SDS011;9417;16.484;102.872;2023-03-23T00:30:40;55.15;;;37.13;;
18574;SDS011;9417;16.484;102.872;2023-03-23T00:32:46;50.28;;;35.55;;
18574;SDS011;9417;16.484;102.872;2023-03-23T00:34:54;49.22;;;35.58;;
18574;SDS011;9417;16.484;102.872;2023-03-23T00:37:05;50.92;;;33.47;;
18574;SDS011;9417;16.484;102.872;2023-03-23T00:39:10;48.08;;;33.50;;
18574;SDS011;9417;16.484;102.872;2023-03-23T00:41:17;45.45;;;32.97;;
18574;SDS011;9417;16.484;102.872;2023-03-23T00:43:23;48.72;;;31.60;;
18574;SDS011;9417;16.484;102.872;2023-03-23T00:45:31;43.92;;;31.95;;
18574;SDS011;9417;16.484;102.872;2023-03-23T00:47:36;44.83;;;30.45;;
18574;SDS011;9417;16.484;102.872;2023-03-23T00:49:42;42.33;;;28.85;;
18574;SDS011;9417;16.484;102.872;2023-03-23T00:51:50;38.90;;;27.77;;
18574;SDS011;9417;16.484;102.872;2023-03-23T00:53:56;38.35;;;27.77;;
18574;SDS011;9417;16.484;102.872;2023-03-23T00:56:01;39.70;;;27.73;;
18574;SDS011;9417;16.484;102.872;2023-03-23T00:58:06;40.50;;;28.13;;
18574;SDS011;9417;16.484;102.872;2023-03-23T01:00:13;39.08;;;26.60;;
18574;SDS011;9417;16.484;102.872;2023-03-23T01:02:18;34.40;;;25.63;;
18574;SDS011;9417;16.484;102.872;2023-03-23T01:04:27;34.97;;;25.50;;
18574;SDS011;9417;16.484;102.872;2023-03-23T01:06:33;33.20;;;24.10;;
18574;SDS011;9417;16.484;102.872;2023-03-23T01:08:42;36.15;;;25.52;;
18574;SDS011;9417;16.484;102.872;2023-03-23T01:10:48;33.13;;;23.40;;
18574;SDS011;9417;16.484;102.872;2023-03-23T01:12:55;32.97;;;23.60;;
18574;SDS011;9417;16.484;102.872;2023-03-23T01:15:01;30.73;;;22.70;;
18574;SDS011;9417;16.484;102.872;2023-03-23T01:17:07;29.75;;;22.50;;
18574;SDS011;9417;16.484;102.872;2023-03-23T01:19:12;36.22;;;23.50;;
18574;SDS011;9417;16.484;102.872;2023-03-23T01:21:19;32.60;;;22.45;;
18574;SDS011;9417;16.484;102.872;2023-03-23T01:23:26;30.48;;;22.60;;
18574;SDS011;9417;16.484;102.872;2023-03-23T01:25:35;31.42;;;22.73;;
18574;SDS011;9417;16.484;102.872;2023-03-23T01:27:40;32.58;;;22.75;;
18574;SDS011;9417;16.484;102.872;2023-03-23T01:29:46;33.53;;;23.00;;
18574;SDS011;9417;16.484;102.872;2023-03-23T01:31:52;34.55;;;22.83;;
18574;SDS011;9417;16.484;102.872;2023-03-23T01:33:57;33.90;;;22.15;;
18574;SDS011;9417;16.484;102.872;2023-03-23T01:36:03;30.25;;;21.90;;
18574;SDS011;9417;16.484;102.872;2023-03-23T01:38:10;29.75;;;21.60;;
18574;SDS011;9417;16.484;102.872;2023-03-23T01:40:16;33.25;;;23.00;;
18574;SDS011;9417;16.484;102.872;2023-03-23T01:42:24;34.28;;;22.70;;
18574;SDS011;9417;16.484;102.872;2023-03-23T01:47:30;35.15;;;23.23;;
18574;SDS011;9417;16.484;102.872;2023-03-23T01:52:37;30.50;;;21.77;;
18574;SDS011;9417;16.484;102.872;2023-03-23T01:54:44;32.10;;;22.83;;
18574;SDS011;9417;16.484;102.872;2023-03-23T01:56:53;30.13;;;22.63;;
18574;SDS011;9417;16.484;102.872;2023-03-23T01:59:02;35.13;;;24.23;;
18574;SDS011;9417;16.484;102.872;2023-03-23T02:01:09;34.17;;;21.73;;
18574;SDS011;9417;16.484;102.872;2023-03-23T02:03:17;32.95;;;23.27;;
18574;SDS011;9417;16.484;102.872;2023-03-23T02:05:27;35.53;;;22.42;;
18574;SDS011;9417;16.484;102.872;2023-03-23T02:07:45;31.27;;;21.38;;
18574;SDS011;9417;16.484;102.872;2023-03-23T02:09:51;29.25;;;21.98;;
18574;SDS011;9417;16.484;102.872;2023-03-23T02:11:57;30.08;;;22.30;;
18574;SDS011;9417;16.484;102.872;2023-03-23T02:14:04;30.63;;;22.40;;
18574;SDS011;9417;16.484;102.872;2023-03-23T02:16:11;28.83;;;21.65;;
18574;SDS011;9417;16.484;102.872;2023-03-23T02:18:29;29.25;;;21.77;;
18574;SDS011;9417;16.484;102.872;2023-03-23T02:20:55;31.02;;;22.00;;
18574;SDS011;9417;16.484;102.872;2023-03-23T02:26:12;29.05;;;20.95;;
18574;SDS011;9417;16.484;102.872;2023-03-23T02:28:36;29.50;;;21.80;;
18574;SDS011;9417;16.484;102.872;2023-03-23T02:31:07;32.42;;;21.02;;
18574;SDS011;9417;16.484;102.872;2023-03-23T02:33:40;28.27;;;21.60;;
18574;SDS011;9417;16.484;102.872;2023-03-23T02:35:53;31.63;;;21.20;;
18574;SDS011;9417;16.484;102.872;2023-03-23T02:38:02;33.13;;;21.83;;
18574;SDS011;9417;16.484;102.872;2023-03-23T02:40:14;26.63;;;20.77;;
18574;SDS011;9417;16.484;102.872;2023-03-23T02:42:54;29.92;;;20.80;;
18574;SDS011;9417;16.484;102.872;2023-03-23T02:45:02;27.10;;;19.83;;
18574;SDS011;9417;16.484;102.872;2023-03-23T02:47:11;31.75;;;21.98;;
18574;SDS011;9417;16.484;102.872;2023-03-23T02:49:21;26.88;;;20.58;;
18574;SDS011;9417;16.484;102.872;2023-03-23T02:51:29;26.92;;;19.60;;
18574;SDS011;9417;16.484;102.872;2023-03-23T02:53:36;26.00;;;19.40;;
18574;SDS011;9417;16.484;102.872;2023-03-23T02:55:45;29.52;;;21.42;;
18574;SDS011;9417;16.484;102.872;2023-03-23T02:57:54;29.02;;;20.88;;
18574;SDS011;9417;16.484;102.872;2023-03-23T03:00:04;30.73;;;20.58;;
18574;SDS011;9417;16.484;102.872;2023-03-23T03:02:12;27.33;;;20.83;;
18574;SDS011;9417;16.484;102.872;2023-03-23T03:04:24;25.30;;;19.80;;
18574;SDS011;9417;16.484;102.872;2023-03-23T03:06:32;26.75;;;20.23;;
18574;SDS011;9417;16.484;102.872;2023-03-23T03:08:41;26.77;;;20.58;;
18574;SDS011;9417;16.484;102.872;2023-03-23T03:10:55;26.20;;;19.98;;
18574;SDS011;9417;16.484;102.872;2023-03-23T03:13:07;29.75;;;20.60;;
18574;SDS011;9417;16.484;102.872;2023-03-23T03:15:22;27.33;;;20.35;;
18574;SDS011;9417;16.484;102.872;2023-03-23T03:17:32;25.48;;;20.35;;
18574;SDS011;9417;16.484;102.872;2023-03-23T03:19:47;28.63;;;20.00;;
18574;SDS011;9417;16.484;102.872;2023-03-23T03:21:54;24.63;;;19.30;;
18574;SDS011;9417;16.484;102.872;2023-03-23T03:24:13;30.00;;;21.05;;
18574;SDS011;9417;16.484;102.872;2023-03-23T03:26:25;28.98;;;19.65;;
18574;SDS011;9417;16.484;102.872;2023-03-23T03:28:36;30.33;;;20.25;;
18574;SDS011;9417;16.484;102.872;2023-03-23T03:30:41;24.60;;;20.35;;
18574;SDS011;9417;16.484;102.872;2023-03-23T03:32:49;26.35;;;19.35;;
18574;SDS011;9417;16.484;102.872;2023-03-23T03:35:00;27.92;;;19.98;;
18574;SDS011;9417;16.484;102.872;2023-03-23T03:37:06;25.35;;;20.50;;
18574;SDS011;9417;16.484;102.872;2023-03-23T03:39:14;26.83;;;20.10;;
18574;SDS011;9417;16.484;102.872;2023-03-23T03:41:22;24.63;;;18.85;;
18574;SDS011;9417;16.484;102.872;2023-03-23T03:43:27;27.77;;;19.50;;
18574;SDS011;9417;16.484;102.872;2023-03-23T03:45:33;24.80;;;19.33;;
18574;SDS011;9417;16.484;102.872;2023-03-23T03:47:46;24.70;;;19.38;;
18574;SDS011;9417;16.484;102.872;2023-03-23T03:49:51;28.00;;;20.08;;
18574;SDS011;9417;16.484;102.872;2023-03-23T03:51:58;28.15;;;19.30;;
18574;SDS011;9417;16.484;102.872;2023-03-23T03:54:16;25.77;;;19.15;;
18574;SDS011;9417;16.484;102.872;2023-03-23T03:56:21;24.40;;;19.38;;
18574;SDS011;9417;16.484;102.872;2023-03-23T03:58:47;25.85;;;19.40;;
18574;SDS011;9417;16.484;102.872;2023-03-23T04:00:59;26.25;;;20.98;;
18574;SDS011;9417;16.484;102.872;2023-03-23T04:03:09;25.83;;;19.43;;
18574;SDS011;9417;16.484;102.872;2023-03-23T04:05:22;26.55;;;19.92;;
18574;SDS011;9417;16.484;102.872;2023-03-23T04:07:29;24.15;;;18.42;;
18574;SDS011;9417;16.484;102.872;2023-03-23T04:09:34;27.30;;;19.45;;
18574;SDS011;9417;16.484;102.872;2023-03-23T04:11:41;25.27;;;19.63;;
18574;SDS011;9417;16.484;102.872;2023-03-23T04:14:04;27.92;;;19.75;;
18574;SDS011;9417;16.484;102.872;2023-03-23T04:16:17;23.58;;;18.98;;
18574;SDS011;9417;16.484;102.872;2023-03-23T04:18:23;28.25;;;19.27;;
18574;SDS011;9417;16.484;102.872;2023-03-23T04:20:30;26.70;;;19.50;;
18574;SDS011;9417;16.484;102.872;2023-03-23T04:22:38;23.95;;;19.80;;
18574;SDS011;9417;16.484;102.872;2023-03-23T04:24:45;25.08;;;18.73;;
18574;SDS011;9417;16.484;102.872;2023-03-23T04:26:53;26.65;;;20.02;;
18574;SDS011;9417;16.484;102.872;2023-03-23T04:29:02;24.55;;;20.27;;
18574;SDS011;9417;16.484;102.872;2023-03-23T04:31:26;24.95;;;20.08;;
18574;SDS011;9417;16.484;102.872;2023-03-23T04:33:41;27.63;;;20.70;;
18574;SDS011;9417;16.484;102.872;2023-03-23T04:35:49;33.20;;;21.73;;
18574;SDS011;9417;16.484;102.872;2023-03-23T04:38:09;59.88;;;40.58;;
18574;SDS011;9417;16.484;102.872;2023-03-23T04:40:16;25.02;;;19.60;;
18574;SDS011;9417;16.484;102.872;2023-03-23T04:42:33;25.80;;;20.25;;
18574;SDS011;9417;16.484;102.872;2023-03-23T04:44:57;24.35;;;18.98;;
18574;SDS011;9417;16.484;102.872;2023-03-23T04:47:10;25.55;;;19.73;;
18574;SDS011;9417;16.484;102.872;2023-03-23T04:49:27;27.95;;;20.55;;
18574;SDS011;9417;16.484;102.872;2023-03-23T04:51:45;25.83;;;18.65;;
18574;SDS011;9417;16.484;102.872;2023-03-23T04:54:08;25.43;;;19.30;;
18574;SDS011;9417;16.484;102.872;2023-03-23T04:56:15;24.85;;;20.33;;
18574;SDS011;9417;16.484;102.872;2023-03-23T04:58:22;27.38;;;21.02;;
18574;SDS011;9417;16.484;102.872;2023-03-23T05:00:48;24.77;;;19.02;;
18574;SDS011;9417;16.484;102.872;2023-03-23T05:02:56;23.80;;;19.45;;
18574;SDS011;9417;16.484;102.872;2023-03-23T05:05:05;27.40;;;19.92;;
18574;SDS011;9417;16.484;102.872;2023-03-23T05:07:11;23.88;;;20.08;;
18574;SDS011;9417;16.484;102.872;2023-03-23T05:09:21;23.52;;;19.25;;
18574;SDS011;9417;16.484;102.872;2023-03-23T05:11:27;23.25;;;19.10;;
18574;SDS011;9417;16.484;102.872;2023-03-23T05:13:32;21.50;;;19.20;;
18574;SDS011;9417;16.484;102.872;2023-03-23T05:15:38;25.05;;;19.65;;
18574;SDS011;9417;16.484;102.872;2023-03-23T05:17:43;27.23;;;19.67;;
18574;SDS011;9417;16.484;102.872;2023-03-23T05:19:54;25.92;;;19.58;;
18574;SDS011;9417;16.484;102.872;2023-03-23T05:22:10;26.27;;;19.65;;
18574;SDS011;9417;16.484;102.872;2023-03-23T05:24:24;27.25;;;20.00;;
18574;SDS011;9417;16.484;102.872;2023-03-23T05:26:33;23.45;;;19.83;;
18574;SDS011;9417;16.484;102.872;2023-03-23T05:28:45;26.90;;;19.85;;
18574;SDS011;9417;16.484;102.872;2023-03-23T05:30:59;23.63;;;18.88;;
18574;SDS011;9417;16.484;102.872;2023-03-23T05:33:07;24.45;;;20.10;;
18574;SDS011;9417;16.484;102.872;2023-03-23T05:35:22;22.67;;;18.67;;
18574;SDS011;9417;16.484;102.872;2023-03-23T05:37:29;23.75;;;19.20;;
18574;SDS011;9417;16.484;102.872;2023-03-23T05:39:44;23.48;;;19.00;;
18574;SDS011;9417;16.484;102.872;2023-03-23T05:41:49;26.35;;;20.38;;
18574;SDS011;9417;16.484;102.872;2023-03-23T05:43:55;26.63;;;19.77;;
18574;SDS011;9417;16.484;102.872;2023-03-23T05:46:19;24.52;;;18.33;;
18574;SDS011;9417;16.484;102.872;2023-03-23T05:48:26;27.30;;;20.00;;
18574;SDS011;9417;16.484;102.872;2023-03-23T05:50:31;25.33;;;20.15;;
18574;SDS011;9417;16.484;102.872;2023-03-23T05:52:39;23.17;;;19.75;;
18574;SDS011;9417;16.484;102.872;2023-03-23T05:54:48;26.00;;;20.23;;
18574;SDS011;9417;16.484;102.872;2023-03-23T05:56:55;23.58;;;18.60;;
18574;SDS011;9417;16.484;102.872;2023-03-23T05:59:29;19.45;;;17.35;;
18574;SDS011;9417;16.484;102.872;2023-03-23T06:01:37;22.38;;;18.60;;
18574;SDS011;9417;16.484;102.872;2023-03-23T06:03:42;21.77;;;18.80;;
18574;SDS011;9417;16.484;102.872;2023-03-23T06:05:53;23.48;;;19.13;;
18574;SDS011;9417;16.484;102.872;2023-03-23T06:08:06;23.70;;;18.67;;
18574;SDS011;9417;16.484;102.872;2023-03-23T06:10:13;27.88;;;19.30;;
18574;SDS011;9417;16.484;102.872;2023-03-23T06:12:25;24.80;;;18.40;;
18574;SDS011;9417;16.484;102.872;2023-03-23T06:14:54;23.92;;;17.88;;
18574;SDS011;9417;16.484;102.872;2023-03-23T06:17:14;28.00;;;20.20;;
18574;SDS011;9417;16.484;102.872;2023-03-23T06:19:23;24.02;;;19.25;;
18574;SDS011;9417;16.484;102.872;2023-03-23T06:21:37;25.65;;;19.45;;
18574;SDS011;9417;16.484;102.872;2023-03-23T06:24:00;25.05;;;19.17;;
18574;SDS011;9417;16.484;102.872;2023-03-23T06:26:08;27.15;;;20.77;;
18574;SDS011;9417;16.484;102.872;2023-03-23T06:28:16;22.77;;;19.63;;
18574;SDS011;9417;16.484;102.872;2023-03-23T06:30:24;22.45;;;18.35;;
18574;SDS011;9417;16.484;102.872;2023-03-23T06:32:32;23.15;;;19.35;;
18574;SDS011;9417;16.484;102.872;2023-03-23T06:34:42;23.42;;;19.42;;
18574;SDS011;9417;16.484;102.872;2023-03-23T06:37:09;24.63;;;19.35;;
18574;SDS011;9417;16.484;102.872;2023-03-23T06:39:28;23.75;;;19.42;;
18574;SDS011;9417;16.484;102.872;2023-03-23T06:42:04;29.10;;;20.00;;
18574;SDS011;9417;16.484;102.872;2023-03-23T06:44:17;23.77;;;18.38;;
18574;SDS011;9417;16.484;102.872;2023-03-23T06:46:22;27.20;;;18.35;;
18574;SDS011;9417;16.484;102.872;2023-03-23T06:48:27;25.42;;;20.50;;
18574;SDS011;9417;16.484;102.872;2023-03-23T06:50:35;26.55;;;19.15;;
18574;SDS011;9417;16.484;102.872;2023-03-23T06:52:45;30.08;;;20.05;;
18574;SDS011;9417;16.484;102.872;2023-03-23T06:54:51;26.75;;;20.70;;
18574;SDS011;9417;16.484;102.872;2023-03-23T06:56:57;25.95;;;19.38;;
18574;SDS011;9417;16.484;102.872;2023-03-23T06:59:05;26.13;;;19.80;;
18574;SDS011;9417;16.484;102.872;2023-03-23T07:01:12;25.00;;;19.45;;
18574;SDS011;9417;16.484;102.872;2023-03-23T07:03:28;26.20;;;19.90;;
18574;SDS011;9417;16.484;102.872;2023-03-23T07:05:34;34.60;;;20.88;;
18574;SDS011;9417;16.484;102.872;2023-03-23T07:07:40;43.15;;;22.73;;
18574;SDS011;9417;16.484;102.872;2023-03-23T07:09:57;32.05;;;22.13;;
18574;SDS011;9417;16.484;102.872;2023-03-23T07:12:03;31.58;;;21.90;;
18574;SDS011;9417;16.484;102.872;2023-03-23T07:14:17;27.40;;;19.02;;
18574;SDS011;9417;16.484;102.872;2023-03-23T07:16:24;29.13;;;16.92;;
18574;SDS011;9417;16.484;102.872;2023-03-23T07:18:29;30.33;;;17.27;;
18574;SDS011;9417;16.484;102.872;2023-03-23T07:20:35;27.58;;;18.67;;
18574;SDS011;9417;16.484;102.872;2023-03-23T07:22:40;30.05;;;20.33;;
18574;SDS011;9417;16.484;102.872;2023-03-23T07:25:06;29.40;;;20.33;;
18574;SDS011;9417;16.484;102.872;2023-03-23T07:27:27;32.72;;;21.27;;
18574;SDS011;9417;16.484;102.872;2023-03-23T07:29:37;30.48;;;22.00;;
18574;SDS011;9417;16.484;102.872;2023-03-23T07:31:53;35.17;;;22.88;;
18574;SDS011;9417;16.484;102.872;2023-03-23T07:33:59;29.85;;;21.90;;
18574;SDS011;9417;16.484;102.872;2023-03-23T07:36:17;38.83;;;22.90;;
18574;SDS011;9417;16.484;102.872;2023-03-23T07:38:23;33.25;;;22.67;;
18574;SDS011;9417;16.484;102.872;2023-03-23T07:40:29;30.65;;;21.88;;
18574;SDS011;9417;16.484;102.872;2023-03-23T07:42:53;33.13;;;22.15;;
18574;SDS011;9417;16.484;102.872;2023-03-23T07:45:14;31.02;;;22.42;;
18574;SDS011;9417;16.484;102.872;2023-03-23T07:47:20;29.45;;;20.85;;
18574;SDS011;9417;16.484;102.872;2023-03-23T07:49:25;25.85;;;18.38;;
18574;SDS011;9417;16.484;102.872;2023-03-23T07:51:45;24.27;;;17.85;;
18574;SDS011;9417;16.484;102.872;2023-03-23T07:53:52;25.77;;;18.75;;
18574;SDS011;9417;16.484;102.872;2023-03-23T07:56:17;20.42;;;16.83;;
18574;SDS011;9417;16.484;102.872;2023-03-23T07:58:23;22.40;;;16.50;;
18574;SDS011;9417;16.484;102.872;2023-03-23T08:00:33;25.60;;;17.40;;
18574;SDS011;9417;16.484;102.872;2023-03-23T08:02:41;20.02;;;16.02;;
18574;SDS011;9417;16.484;102.872;2023-03-23T08:05:05;21.58;;;16.48;;
18574;SDS011;9417;16.484;102.872;2023-03-23T08:07:32;23.27;;;17.33;;
18574;SDS011;9417;16.484;102.872;2023-03-23T08:09:58;23.88;;;18.38;;
18574;SDS011;9417;16.484;102.872;2023-03-23T08:12:17;25.50;;;18.42;;
18574;SDS011;9417;16.484;102.872;2023-03-23T08:14:40;28.98;;;19.67;;
18574;SDS011;9417;16.484;102.872;2023-03-23T08:17:25;27.50;;;19.47;;
18574;SDS011;9417;16.484;102.872;2023-03-23T08:19:51;27.92;;;19.95;;
18574;SDS011;9417;16.484;102.872;2023-03-23T08:22:14;25.15;;;18.58;;
18574;SDS011;9417;16.484;102.872;2023-03-23T08:24:42;22.27;;;14.35;;
18574;SDS011;9417;16.484;102.872;2023-03-23T08:27:01;21.50;;;14.60;;
18574;SDS011;9417;16.484;102.872;2023-03-23T08:29:21;28.48;;;17.15;;
18574;SDS011;9417;16.484;102.872;2023-03-23T08:31:27;21.15;;;15.50;;
18574;SDS011;9417;16.484;102.872;2023-03-23T08:33:54;25.90;;;14.73;;
18574;SDS011;9417;16.484;102.872;2023-03-23T08:36:00;15.05;;;11.48;;
18574;SDS011;9417;16.484;102.872;2023-03-23T08:49:22;9.07;;;6.63;;
18574;SDS011;9417;16.484;102.872;2023-03-23T08:51:50;8.27;;;6.53;;
18574;SDS011;9417;16.484;102.872;2023-03-23T08:54:14;10.45;;;7.15;;
18574;SDS011;9417;16.484;102.872;2023-03-23T08:56:33;11.15;;;8.05;;
18574;SDS011;9417;16.484;102.872;2023-03-23T08:58:57;14.07;;;8.77;;
18574;SDS011;9417;16.484;102.872;2023-03-23T09:01:20;11.23;;;9.73;;
18574;SDS011;9417;16.484;102.872;2023-03-23T09:03:44;13.30;;;9.90;;
18574;SDS011;9417;16.484;102.872;2023-03-23T09:06:10;11.93;;;9.98;;
18574;SDS011;9417;16.484;102.872;2023-03-23T09:08:19;12.07;;;9.63;;
18574;SDS011;9417;16.484;102.872;2023-03-23T09:10:25;13.30;;;10.02;;
18574;SDS011;9417;16.484;102.872;2023-03-23T09:12:31;14.52;;;10.52;;
18574;SDS011;9417;16.484;102.872;2023-03-23T09:14:37;13.50;;;10.30;;
18574;SDS011;9417;16.484;102.872;2023-03-23T09:16:43;13.73;;;9.80;;
18574;SDS011;9417;16.484;102.872;2023-03-23T09:18:48;13.73;;;9.82;;
18574;SDS011;9417;16.484;102.872;2023-03-23T09:20:53;14.50;;;10.73;;
18574;SDS011;9417;16.484;102.872;2023-03-23T09:23:01;13.40;;;10.27;;
18574;SDS011;9417;16.484;102.872;2023-03-23T09:25:07;14.77;;;10.48;;
18574;SDS011;9417;16.484;102.872;2023-03-23T09:27:14;16.27;;;11.27;;
18574;SDS011;9417;16.484;102.872;2023-03-23T09:29:19;14.35;;;10.68;;
18574;SDS011;9417;16.484;102.872;2023-03-23T09:31:25;14.27;;;11.20;;
18574;SDS011;9417;16.484;102.872;2023-03-23T09:33:30;48.70;;;30.85;;
18574;SDS011;9417;16.484;102.872;2023-03-23T09:35:37;19.77;;;14.80;;
18574;SDS011;9417;16.484;102.872;2023-03-23T09:37:43;16.20;;;13.32;;
18574;SDS011;9417;16.484;102.872;2023-03-23T09:39:51;16.83;;;12.93;;
18574;SDS011;9417;16.484;102.872;2023-03-23T09:42:04;20.08;;;14.20;;
18574;SDS011;9417;16.484;102.872;2023-03-23T09:44:20;57.28;;;16.77;;
18574;SDS011;9417;16.484;102.872;2023-03-23T09:46:40;24.40;;;15.65;;
18574;SDS011;9417;16.484;102.872;2023-03-23T09:48:52;25.00;;;16.73;;
18574;SDS011;9417;16.484;102.872;2023-03-23T09:51:00;22.50;;;15.82;;
18574;SDS011;9417;16.484;102.872;2023-03-23T09:53:09;18.23;;;15.38;;
18574;SDS011;9417;16.484;102.872;2023-03-23T09:55:20;23.90;;;17.83;;
18574;SDS011;9417;16.484;102.872;2023-03-23T09:57:26;23.98;;;17.55;;
18574;SDS011;9417;16.484;102.872;2023-03-23T09:59:37;21.20;;;17.17;;
18574;SDS011;9417;16.484;102.872;2023-03-23T10:01:47;26.70;;;17.55;;
18574;SDS011;9417;16.484;102.872;2023-03-23T10:03:57;27.90;;;18.95;;
18574;SDS011;9417;16.484;102.872;2023-03-23T10:06:08;25.80;;;20.02;;
18574;SDS011;9417;16.484;102.872;2023-03-23T10:08:16;32.58;;;21.02;;
18574;SDS011;9417;16.484;102.872;2023-03-23T10:10:26;28.55;;;20.38;;
18574;SDS011;9417;16.484;102.872;2023-03-23T10:12:38;27.75;;;19.60;;
18574;SDS011;9417;16.484;102.872;2023-03-23T10:14:53;25.27;;;19.05;;
18574;SDS011;9417;16.484;102.872;2023-03-23T10:17:11;27.08;;;19.63;;
18574;SDS011;9417;16.484;102.872;2023-03-23T10:19:20;26.02;;;18.52;;
18574;SDS011;9417;16.484;102.872;2023-03-23T10:21:31;27.60;;;19.77;;
18574;SDS011;9417;16.484;102.872;2023-03-23T10:23:54;32.72;;;21.35;;
18574;SDS011;9417;16.484;102.872;2023-03-23T10:26:05;33.38;;;21.58;;
18574;SDS011;9417;16.484;102.872;2023-03-23T10:28:17;22.50;;;14.77;;
18574;SDS011;9417;16.484;102.872;2023-03-23T10:30:25;32.22;;;22.90;;
18574;SDS011;9417;16.484;102.872;2023-03-23T10:32:39;28.23;;;22.20;;
18574;SDS011;9417;16.484;102.872;2023-03-23T10:34:48;32.45;;;22.60;;
18574;SDS011;9417;16.484;102.872;2023-03-23T10:37:02;31.20;;;23.10;;
18574;SDS011;9417;16.484;102.872;2023-03-23T10:39:10;31.27;;;22.88;;
18574;SDS011;9417;16.484;102.872;2023-03-23T10:41:20;32.10;;;24.38;;
18574;SDS011;9417;16.484;102.872;2023-03-23T10:43:25;27.45;;;21.40;;
18574;SDS011;9417;16.484;102.872;2023-03-23T10:45:31;28.55;;;21.40;;
18574;SDS011;9417;16.484;102.872;2023-03-23T10:47:37;31.65;;;21.48;;
18574;SDS011;9417;16.484;102.872;2023-03-23T10:49:47;30.02;;;21.58;;
18574;SDS011;9417;16.484;102.872;2023-03-23T10:51:57;29.38;;;20.90;;
18574;SDS011;9417;16.484;102.872;2023-03-23T10:54:24;28.40;;;21.88;;
18574;SDS011;9417;16.484;102.872;2023-03-23T10:56:36;31.20;;;22.33;;
18574;SDS011;9417;16.484;102.872;2023-03-23T10:58:43;31.17;;;23.30;;
18574;SDS011;9417;16.484;102.872;2023-03-23T11:00:48;35.63;;;25.92;;
18574;SDS011;9417;16.484;102.872;2023-03-23T11:02:58;31.92;;;24.35;;
18574;SDS011;9417;16.484;102.872;2023-03-23T11:05:06;34.72;;;24.45;;
18574;SDS011;9417;16.484;102.872;2023-03-23T11:07:26;36.03;;;26.55;;
18574;SDS011;9417;16.484;102.872;2023-03-23T11:09:34;37.42;;;27.25;;
18574;SDS011;9417;16.484;102.872;2023-03-23T11:11:42;31.08;;;24.17;;
18574;SDS011;9417;16.484;102.872;2023-03-23T11:13:56;36.38;;;27.50;;
18574;SDS011;9417;16.484;102.872;2023-03-23T11:16:03;34.03;;;25.70;;
18574;SDS011;9417;16.484;102.872;2023-03-23T11:18:10;31.77;;;24.48;;
18574;SDS011;9417;16.484;102.872;2023-03-23T11:20:19;35.95;;;27.13;;
18574;SDS011;9417;16.484;102.872;2023-03-23T11:22:25;36.95;;;26.92;;
18574;SDS011;9417;16.484;102.872;2023-03-23T11:24:33;35.22;;;27.08;;
18574;SDS011;9417;16.484;102.872;2023-03-23T11:26:40;35.20;;;27.67;;
18574;SDS011;9417;16.484;102.872;2023-03-23T11:28:51;37.72;;;28.98;;
18574;SDS011;9417;16.484;102.872;2023-03-23T11:31:00;41.60;;;30.67;;
18574;SDS011;9417;16.484;102.872;2023-03-23T11:33:10;37.15;;;30.08;;
18574;SDS011;9417;16.484;102.872;2023-03-23T11:35:18;39.85;;;28.70;;
18574;SDS011;9417;16.484;102.872;2023-03-23T11:37:27;36.38;;;28.05;;
18574;SDS011;9417;16.484;102.872;2023-03-23T11:39:45;44.23;;;30.20;;
18574;SDS011;9417;16.484;102.872;2023-03-23T11:41:54;39.45;;;27.25;;
18574;SDS011;9417;16.484;102.872;2023-03-23T11:44:03;62.28;;;43.85;;
18574;SDS011;9417;16.484;102.872;2023-03-23T11:46:18;56.28;;;38.50;;
18574;SDS011;9417;16.484;102.872;2023-03-23T11:48:35;65.97;;;43.42;;
18574;SDS011;9417;16.484;102.872;2023-03-23T11:50:50;45.58;;;34.40;;
18574;SDS011;9417;16.484;102.872;2023-03-23T11:52:59;35.55;;;28.27;;
18574;SDS011;9417;16.484;102.872;2023-03-23T11:55:09;38.22;;;29.50;;
18574;SDS011;9417;16.484;102.872;2023-03-23T11:57:18;38.67;;;29.05;;
18574;SDS011;9417;16.484;102.872;2023-03-23T11:59:27;39.75;;;28.10;;
18574;SDS011;9417;16.484;102.872;2023-03-23T12:01:42;37.10;;;27.35;;
18574;SDS011;9417;16.484;102.872;2023-03-23T12:03:58;40.88;;;28.98;;
18574;SDS011;9417;16.484;102.872;2023-03-23T12:06:16;33.97;;;27.58;;
18574;SDS011;9417;16.484;102.872;2023-03-23T12:08:33;34.53;;;26.02;;
18574;SDS011;9417;16.484;102.872;2023-03-23T12:10:53;39.58;;;29.08;;
18574;SDS011;9417;16.484;102.872;2023-03-23T12:13:18;35.05;;;28.27;;
18574;SDS011;9417;16.484;102.872;2023-03-23T12:15:38;38.92;;;28.55;;
18574;SDS011;9417;16.484;102.872;2023-03-23T12:17:49;38.65;;;29.33;;
18574;SDS011;9417;16.484;102.872;2023-03-23T12:20:05;38.05;;;28.15;;
18574;SDS011;9417;16.484;102.872;2023-03-23T12:22:24;40.53;;;28.60;;
18574;SDS011;9417;16.484;102.872;2023-03-23T12:24:43;33.05;;;27.55;;
18574;SDS011;9417;16.484;102.872;2023-03-23T12:26:58;39.42;;;28.95;;
18574;SDS011;9417;16.484;102.872;2023-03-23T12:29:18;38.28;;;27.83;;
18574;SDS011;9417;16.484;102.872;2023-03-23T12:31:36;38.05;;;29.83;;
18574;SDS011;9417;16.484;102.872;2023-03-23T12:33:52;40.90;;;30.55;;
18574;SDS011;9417;16.484;102.872;2023-03-23T12:36:04;41.10;;;29.30;;
18574;SDS011;9417;16.484;102.872;2023-03-23T12:38:25;40.90;;;29.85;;
18574;SDS011;9417;16.484;102.872;2023-03-23T12:40:49;38.45;;;28.35;;
18574;SDS011;9417;16.484;102.872;2023-03-23T12:43:01;39.60;;;28.65;;
18574;SDS011;9417;16.484;102.872;2023-03-23T12:45:21;38.08;;;29.08;;
18574;SDS011;9417;16.484;102.872;2023-03-23T12:47:34;41.35;;;28.38;;
18574;SDS011;9417;16.484;102.872;2023-03-23T12:49:48;42.08;;;29.58;;
18574;SDS011;9417;16.484;102.872;2023-03-23T12:51:58;40.97;;;30.95;;
18574;SDS011;9417;16.484;102.872;2023-03-23T12:54:11;38.45;;;30.77;;
18574;SDS011;9417;16.484;102.872;2023-03-23T12:56:21;35.47;;;29.00;;
18574;SDS011;9417;16.484;102.872;2023-03-23T12:58:31;42.08;;;30.13;;